Promise, South Dakota
Current Conditions -  °F | °C
As of 1:52 PM on Thursday 23 Oct 2014 (Local Time) from KMBG Reporting Station
Clear Clear  
Wind Chill: 68°   Ceiling: Unl
Heat Index: 68°   Visibility: 10mi
Dew Point: 39°   Wind: 10mph
Humidity: 35%   Direction: 170°S
Pressure: 29.88"   Gusts: NA
Location:  45.5528°N, 100.336°W
Report Text: KMBG 231852Z AUTO 17009KT 10SM CLR 20/04 A2988 RMK AO2 SLP119 T02000039
Loading
Personal Weather Stations






























Interactive Weather Map
Tropical Storm Tracking
New forecast layout! Learn more

10-Day Weather Forecast

Advertisements
Track Severe Weather on mobile